Time;durP1;ratioP1;P1;durP2;ratioP2;P2;SDS_P1;SDS_P2;PMS_P1;PMS_P2;Temp;Humidity;BMP_temperature;BMP_pressure;BME280_temperature;BME280_humidity;BME280_pressure;Samples;Min_cycle;Max_cycle;Signal;HPM_P1;HPM_P2
2023/11/01 00:00:28;;;;;;;14.40;7.40;;;;;;;12.37;100.00;100686.85;105881;1260;62315;-76
2023/11/01 00:02:56;;;;;;;9.80;6.30;;;;;;;12.37;100.00;100679.77;105217;1261;71544;-76
2023/11/01 00:05:23;;;;;;;14.30;6.50;;;;;;;12.38;100.00;100676.75;105323;1259;59850;-73
2023/11/01 00:07:51;;;;;;;9.00;6.60;;;;;;;12.40;100.00;100673.63;105794;1254;60676;-78
2023/11/01 00:10:18;;;;;;;12.60;6.40;;;;;;;12.41;100.00;100669.21;105710;1254;71809;-77
2023/11/01 00:12:46;;;;;;;12.50;7.30;;;;;;;12.42;100.00;100672.46;105661;1260;63757;-75
2023/11/01 00:15:13;;;;;;;10.00;6.50;;;;;;;12.41;100.00;100668.14;105664;1254;72673;-75
2023/11/01 00:17:41;;;;;;;10.90;6.80;;;;;;;12.41;100.00;100666.75;105671;1256;60520;-75
2023/11/01 00:20:09;;;;;;;14.60;6.80;;;;;;;12.40;100.00;100670.46;105825;1254;60024;-78
2023/11/01 00:22:38;;;;;;;9.60;6.20;;;;;;;12.39;100.00;100664.58;105662;1254;71753;-76
2023/11/01 00:25:05;;;;;;;10.50;6.10;;;;;;;12.39;100.00;100657.79;105685;1256;62320;-78
2023/11/01 00:27:33;;;;;;;12.40;7.10;;;;;;;12.37;100.00;100653.66;105768;1258;71377;-76
2023/11/01 00:30:01;;;;;;;12.60;6.00;;;;;;;12.36;100.00;100651.63;105774;1259;60396;-75
2023/11/01 00:32:29;;;;;;;9.60;6.10;;;;;;;12.35;100.00;100646.83;105656;1261;59630;-76
2023/11/01 00:34:56;;;;;;;14.20;7.10;;;;;;;12.33;100.00;100648.53;105624;1258;72884;-73
2023/11/01 00:37:24;;;;;;;10.30;6.30;;;;;;;12.32;100.00;100651.05;105612;1260;64268;-76
2023/11/01 00:39:51;;;;;;;11.70;6.20;;;;;;;12.31;100.00;100651.14;105728;1258;72621;-75
2023/11/01 00:42:19;;;;;;;14.60;6.80;;;;;;;12.29;100.00;100655.97;105633;1260;60843;-77
2023/11/01 00:44:46;;;;;;;14.80;7.20;;;;;;;12.29;100.00;100655.47;105522;1263;59660;-75
2023/11/01 00:47:15;;;;;;;12.60;7.30;;;;;;;12.28;100.00;100656.73;105670;1254;73128;-75
2023/11/01 00:49:42;;;;;;;16.50;10.60;;;;;;;12.28;100.00;100648.67;105761;1260;63616;-74
2023/11/01 00:52:10;;;;;;;12.30;7.10;;;;;;;12.29;100.00;100646.54;105735;1258;71458;-75
2023/11/01 00:54:37;;;;;;;12.90;7.70;;;;;;;12.29;100.00;100637.23;105718;1254;62386;-76
2023/11/01 00:57:05;;;;;;;14.00;7.30;;;;;;;12.29;100.00;100636.34;105663;1254;60022;-74
2023/11/01 00:59:33;;;;;;;10.30;7.20;;;;;;;12.29;100.00;100633.69;105776;1260;73178;-76
2023/11/01 01:02:00;;;;;;;13.70;7.10;;;;;;;12.29;100.00;100630.02;105761;1254;62671;-79
2023/11/01 01:04:28;;;;;;;11.70;7.30;;;;;;;12.28;100.00;100623.43;105646;1259;72859;-76
2023/11/01 01:06:56;;;;;;;8.80;6.40;;;;;;;12.27;100.00;100622.29;105635;1254;60815;-74
2023/11/01 01:09:23;;;;;;;11.90;6.70;;;;;;;12.26;100.00;100621.50;105563;1260;59628;-76
2023/11/01 01:11:51;;;;;;;15.20;6.80;;;;;;;12.25;100.00;100614.54;105670;1261;73121;-75
2023/11/01 01:14:19;;;;;;;12.20;7.90;;;;;;;12.23;100.00;100616.06;105709;1254;62805;-74
2023/11/01 01:16:47;;;;;;;12.70;7.60;;;;;;;12.21;100.00;100619.65;105657;1254;72634;-75
2023/11/01 01:19:15;;;;;;;12.90;8.40;;;;;;;12.19;100.00;100609.97;105695;1258;60748;-75
2023/11/01 01:21:43;;;;;;;13.30;8.10;;;;;;;12.19;100.00;100606.88;105648;1261;59701;-78
2023/11/01 01:24:10;;;;;;;18.30;9.30;;;;;;;12.18;100.00;100605.53;105617;1260;73150;-76
2023/11/01 01:26:38;;;;;;;16.00;9.60;;;;;;;12.17;100.00;100604.14;105707;1259;62431;-75
2023/11/01 01:29:05;;;;;;;14.60;8.20;;;;;;;12.18;100.00;100603.27;105596;1254;71826;-74
2023/11/01 01:31:33;;;;;;;15.40;8.40;;;;;;;12.18;100.00;100599.92;105648;1257;60463;-76
2023/11/01 01:34:01;;;;;;;17.40;10.20;;;;;;;12.17;100.00;100597.52;105736;1254;59817;-75
2023/11/01 01:36:28;;;;;;;17.60;10.50;;;;;;;12.17;100.00;100605.41;105668;1254;72205;-76
2023/11/01 01:38:55;;;;;;;12.60;8.30;;;;;;;12.16;100.00;100601.80;105659;1254;63758;-75
2023/11/01 01:41:23;;;;;;;15.50;10.10;;;;;;;12.14;100.00;100601.06;105700;1257;71265;-73
2023/11/01 01:43:50;;;;;;;16.70;9.40;;;;;;;12.12;100.00;100607.17;105716;1260;60391;-75
2023/11/01 01:46:18;;;;;;;13.20;8.90;;;;;;;12.09;100.00;100611.91;105603;1259;59718;-75
2023/11/01 01:48:46;;;;;;;13.80;10.00;;;;;;;12.06;100.00;100614.75;105569;1254;73036;-77
2023/11/01 01:51:13;;;;;;;17.60;10.60;;;;;;;12.02;100.00;100611.63;105631;1254;63546;-77
2023/11/01 01:53:45;;;;;;;16.10;11.30;;;;;;;12.00;100.00;100605.14;107426;1257;71370;-73
2023/11/01 01:56:13;;;;;;;19.10;10.90;;;;;;;11.97;100.00;100602.34;107745;1256;59848;-72
2023/11/01 01:58:41;;;;;;;19.70;11.50;;;;;;;11.95;100.00;100603.55;107537;1264;61553;-74
2023/11/01 02:01:08;;;;;;;17.30;10.10;;;;;;;11.93;100.00;100597.91;106301;1254;72233;-74
2023/11/01 02:03:36;;;;;;;23.70;11.00;;;;;;;11.91;100.00;100596.09;105694;1260;62416;-75
2023/11/01 02:06:05;;;;;;;21.80;11.60;;;;;;;11.89;100.00;100595.33;105564;1262;70089;-73
2023/11/01 02:08:33;;;;;;;15.50;10.10;;;;;;;11.88;100.00;100598.05;105672;1254;60929;-76
2023/11/01 02:11:00;;;;;;;20.50;10.40;;;;;;;11.86;100.00;100589.23;105471;1255;60127;-75
2023/11/01 02:13:28;;;;;;;20.40;11.70;;;;;;;11.83;100.00;100590.27;105577;1255;72867;-76
2023/11/01 02:15:56;;;;;;;21.20;11.50;;;;;;;11.81;100.00;100584.65;105732;1260;62615;-76
2023/11/01 02:18:23;;;;;;;17.00;10.90;;;;;;;11.79;100.00;100580.02;105730;1254;73904;-74
2023/11/01 02:20:54;;;;;;;18.70;11.80;;;;;;;11.78;100.00;100575.73;105659;1259;60635;-74
2023/11/01 02:23:32;;;;;;;16.60;12.30;;;;;;;11.77;100.00;100570.56;105557;1262;59962;-76
2023/11/01 02:26:01;;;;;;;22.00;12.10;;;;;;;11.76;100.00;100566.21;105630;1263;73228;-76
2023/11/01 02:28:29;;;;;;;19.50;12.40;;;;;;;11.75;100.00;100562.74;105708;1260;63571;-74
2023/11/01 02:30:56;;;;;;;21.00;12.80;;;;;;;11.75;100.00;100563.83;105671;1260;72344;-75
2023/11/01 02:33:24;;;;;;;18.60;12.00;;;;;;;11.74;100.00;100557.39;105682;1255;60404;-75
2023/11/01 02:35:51;;;;;;;20.80;11.90;;;;;;;11.74;100.00;100550.04;105486;1260;59605;-77
2023/11/01 02:38:19;;;;;;;25.20;12.80;;;;;;;11.74;100.00;100549.55;105471;1254;73824;-75
2023/11/01 02:40:46;;;;;;;20.00;12.80;;;;;;;11.73;100.00;100550.81;105590;1254;62475;-75
2023/11/01 02:43:14;;;;;;;19.60;12.60;;;;;;;11.74;100.00;100546.61;105629;1255;72665;-78
2023/11/01 02:45:45;;;;;;;23.90;11.90;;;;;;;11.72;100.00;100541.95;105517;1259;61925;-78
2023/11/01 02:48:13;;;;;;;21.40;12.40;;;;;;;11.72;100.00;100536.94;105704;1255;59661;-74
2023/11/01 02:50:40;;;;;;;23.80;15.10;;;;;;;11.70;100.00;100533.54;105446;1259;71849;-75
2023/11/01 02:53:08;;;;;;;28.90;15.90;;;;;;;11.69;100.00;100530.95;105478;1254;63904;-73
2023/11/01 02:55:35;;;;;;;25.20;15.60;;;;;;;11.68;100.00;100525.63;105511;1259;71170;-78
2023/11/01 02:58:03;;;;;;;28.00;16.00;;;;;;;11.68;100.00;100521.42;105640;1255;62349;-75
2023/11/01 03:00:31;;;;;;;31.00;17.60;;;;;;;11.67;100.00;100517.61;105587;1259;59704;-78
2023/11/01 03:02:58;;;;;;;33.80;19.90;;;;;;;11.66;100.00;100512.57;105312;1262;71460;-74
2023/11/01 03:05:28;;;;;;;36.30;21.00;;;;;;;11.67;100.00;100507.47;105468;1260;63523;-76
2023/11/01 03:07:56;;;;;;;35.50;19.70;;;;;;;11.68;100.00;100499.71;105456;1257;71617;-75
2023/11/01 03:10:24;;;;;;;32.40;18.70;;;;;;;11.69;100.00;100491.76;105481;1260;60480;-76
2023/11/01 03:12:51;;;;;;;28.20;17.40;;;;;;;11.70;100.00;100492.22;105528;1254;60770;-74
2023/11/01 03:15:21;;;;;;;26.10;17.50;;;;;;;11.71;100.00;100495.64;105575;1254;73056;-73
2023/11/01 03:17:48;;;;;;;26.20;17.90;;;;;;;11.72;100.00;100495.39;105375;1262;63522;-72
2023/11/01 03:20:17;;;;;;;26.10;16.40;;;;;;;11.72;100.00;100497.11;105490;1260;74902;-74
2023/11/01 03:22:45;;;;;;;29.20;16.90;;;;;;;11.72;100.00;100495.70;105558;1260;60480;-78
2023/11/01 03:25:13;;;;;;;23.60;15.30;;;;;;;11.71;100.00;100496.84;105407;1262;59759;-75
2023/11/01 03:27:41;;;;;;;25.50;14.80;;;;;;;11.71;100.00;100493.36;105602;1259;71831;-73
2023/11/01 03:30:08;;;;;;;23.90;15.70;;;;;;;11.70;100.00;100496.94;105667;1259;62420;-73
2023/11/01 03:32:37;;;;;;;26.10;13.80;;;;;;;11.68;100.00;100496.73;105485;1265;72762;-75
2023/11/01 03:35:05;;;;;;;21.80;14.70;;;;;;;11.66;100.00;100496.67;105447;1257;61715;-77
2023/11/01 03:37:33;;;;;;;22.60;15.50;;;;;;;11.63;100.00;100495.09;105529;1260;60096;-75
2023/11/01 03:40:00;;;;;;;29.40;16.30;;;;;;;11.61;100.00;100490.47;105717;1254;73671;-75
2023/11/01 03:42:28;;;;;;;25.80;15.80;;;;;;;11.60;100.00;100488.84;105592;1260;63886;-78
2023/11/01 03:44:55;;;;;;;26.00;16.60;;;;;;;11.58;100.00;100485.65;105673;1257;71426;-74
2023/11/01 03:47:23;;;;;;;26.40;16.50;;;;;;;11.56;100.00;100484.00;105858;1252;61705;-76
2023/11/01 03:49:52;;;;;;;30.10;17.60;;;;;;;11.55;100.00;100479.16;105940;1256;60839;-75
2023/11/01 03:52:20;;;;;;;30.00;17.50;;;;;;;11.54;100.00;100478.91;105814;1257;74446;-74
2023/11/01 03:54:48;;;;;;;22.80;16.20;;;;;;;11.53;100.00;100478.40;105742;1256;64360;-74
2023/11/01 03:57:16;;;;;;;24.80;15.80;;;;;;;11.52;100.00;100475.85;105844;1254;71904;-75
2023/11/01 03:59:44;;;;;;;21.60;15.30;;;;;;;11.51;100.00;100471.73;105966;1254;61605;-73
2023/11/01 04:02:11;;;;;;;23.20;17.00;;;;;;;11.50;100.00;100465.36;106088;1256;60460;-74
2023/11/01 04:04:38;;;;;;;25.70;17.00;;;;;;;11.48;100.00;100460.05;105968;1256;73706;-74
2023/11/01 04:07:06;;;;;;;23.60;17.10;;;;;;;11.47;100.00;100460.65;106388;1251;64134;-73
2023/11/01 04:09:33;;;;;;;23.70;16.90;;;;;;;11.47;100.00;100459.77;106644;1256;72203;-75
2023/11/01 04:12:01;;;;;;;26.40;16.80;;;;;;;11.47;100.00;100451.20;106177;1256;61817;-74
2023/11/01 04:14:28;;;;;;;25.80;15.30;;;;;;;11.46;100.00;100449.48;106390;1256;60345;-74
2023/11/01 04:16:56;;;;;;;27.40;17.80;;;;;;;11.46;100.00;100451.06;105941;1257;72571;-75
2023/11/01 04:19:24;;;;;;;27.00;18.70;;;;;;;11.47;100.00;100451.90;105885;1257;62682;-76
2023/11/01 04:21:53;;;;;;;29.40;17.60;;;;;;;11.48;100.00;100457.06;105934;1256;73108;-78
2023/11/01 04:24:20;;;;;;;25.60;16.60;;;;;;;11.50;100.00;100459.22;105865;1257;61637;-75
2023/11/01 04:26:47;;;;;;;27.40;17.50;;;;;;;11.50;100.00;100459.19;105933;1257;62202;-77
2023/11/01 04:29:16;;;;;;;24.70;16.80;;;;;;;11.51;100.00;100453.86;105867;1251;73822;-76
2023/11/01 04:31:43;;;;;;;26.80;18.00;;;;;;;11.52;100.00;100445.58;105833;1256;62398;-75
2023/11/01 04:34:11;;;;;;;28.20;16.70;;;;;;;11.53;100.00;100446.02;105816;1257;71394;-77
2023/11/01 04:48:36;;;;;;;25.20;18.50;;;;;;;11.64;100.00;100447.54;103833;1292;600992;-74
2023/11/01 04:51:04;;;;;;;25.60;17.10;;;;;;;11.65;100.00;100451.17;104682;1275;61551;-73
2023/11/01 04:53:32;;;;;;;33.10;18.40;;;;;;;11.67;100.00;100458.56;104945;1271;59286;-77
2023/11/01 04:56:05;;;;;;;24.80;16.80;;;;;;;11.70;100.00;100456.14;105481;1257;73146;-78
2023/11/01 04:58:35;;;;;;;26.40;18.30;;;;;;;11.72;100.00;100454.27;105646;1256;63596;-75
2023/11/01 05:01:07;;;;;;;28.90;18.10;;;;;;;11.74;100.00;100456.91;105679;1259;72689;-76
2023/11/01 05:03:36;;;;;;;25.80;18.10;;;;;;;11.76;100.00;100457.30;105598;1254;60103;-77
2023/11/01 05:06:05;;;;;;;26.90;17.40;;;;;;;11.78;100.00;100455.41;106168;1256;60424;-76
2023/11/01 05:08:35;;;;;;;27.70;19.50;;;;;;;11.80;100.00;100456.48;105835;1257;72316;-75
2023/11/01 05:11:03;;;;;;;29.40;20.00;;;;;;;11.84;100.00;100464.65;105866;1259;62598;-75
2023/11/01 05:13:30;;;;;;;37.80;20.40;;;;;;;11.87;100.00;100464.78;105875;1254;71631;-76
2023/11/01 05:15:58;;;;;;;33.20;20.80;;;;;;;11.90;100.00;100467.61;105805;1253;60646;-77
2023/11/01 05:18:27;;;;;;;26.80;18.90;;;;;;;11.92;100.00;100468.11;105761;1257;59577;-74
2023/11/01 05:20:55;;;;;;;31.80;20.10;;;;;;;11.95;100.00;100466.35;105902;1257;73104;-75
2023/11/01 05:36:29;;;;;;;25.70;17.30;;;;;;;12.18;100.00;100456.00;102564;1294;603713;-78
2023/11/01 05:38:56;;;;;;;25.20;17.30;;;;;;;12.24;100.00;100456.13;105107;1268;60458;-77
2023/11/01 05:41:23;;;;;;;28.50;18.50;;;;;;;12.34;100.00;100455.06;105486;1260;60388;-78
2023/11/01 05:43:50;;;;;;;23.00;16.70;;;;;;;12.57;100.00;100449.96;105438;1259;72293;-78
2023/11/01 05:46:23;;;;;;;24.70;17.10;;;;;;;12.91;100.00;100452.04;105589;1262;63854;-78
2023/11/01 05:48:50;;;;;;;23.50;16.80;;;;;;;13.33;100.00;100444.97;105370;1267;190425;-80
2023/11/01 05:51:17;;;;;;;25.70;17.30;;;;;;;13.77;100.00;100443.48;105671;1257;62025;-77
2023/11/01 05:53:46;;;;;;;25.00;16.60;;;;;;;14.28;100.00;100448.27;105705;1255;60186;-76
2023/11/01 05:56:15;;;;;;;23.30;16.30;;;;;;;14.83;100.00;100443.78;105802;1259;72228;-76
2023/11/01 05:58:43;;;;;;;29.80;16.70;;;;;;;15.33;100.00;100449.40;105977;1257;64002;-78
2023/11/01 06:01:10;;;;;;;22.70;15.50;;;;;;;15.72;100.00;100457.09;105703;1255;72850;-75
2023/11/01 06:03:37;;;;;;;22.80;14.40;;;;;;;16.09;100.00;100458.39;105789;1257;61964;-76
2023/11/01 06:06:05;;;;;;;20.60;14.60;;;;;;;16.34;100.00;100458.31;105811;1257;60394;-78
2023/11/01 06:08:32;;;;;;;23.40;15.10;;;;;;;16.33;100.00;100466.21;106041;1259;73032;-75
2023/11/01 06:11:02;;;;;;;22.80;14.60;;;;;;;16.17;100.00;100470.94;106106;1258;62757;-76
2023/11/01 06:13:30;;;;;;;21.60;14.40;;;;;;;15.96;100.00;100469.06;105727;1255;72701;-76
2023/11/01 06:15:59;;;;;;;21.20;14.50;;;;;;;15.65;100.00;100466.98;105684;1258;60658;-75
2023/11/01 06:18:26;;;;;;;20.80;15.20;;;;;;;15.35;100.00;100463.89;105906;1254;60323;-76
2023/11/01 06:20:53;;;;;;;22.90;15.10;;;;;;;15.06;100.00;100456.93;105698;1257;71486;-77
2023/11/01 06:23:19;;;;;;;22.00;16.20;;;;;;;14.86;100.00;100453.21;105838;1254;62381;-77
2023/11/01 06:25:46;;;;;;;23.40;14.30;;;;;;;14.72;100.00;100443.46;106454;1260;71194;-76
2023/11/01 06:28:14;;;;;;;21.70;15.20;;;;;;;14.60;100.00;100443.16;106373;1254;61033;-75
2023/11/01 06:30:42;;;;;;;22.90;14.40;;;;;;;14.49;100.00;100445.58;106540;1260;59562;-75
2023/11/01 06:33:10;;;;;;;24.90;15.20;;;;;;;14.42;100.00;100450.88;106205;1263;71818;-74
2023/11/01 06:35:37;;;;;;;23.90;14.60;;;;;;;14.38;100.00;100456.02;106285;1257;63191;-77
2023/11/01 06:38:04;;;;;;;29.40;16.00;;;;;;;14.34;100.00;100456.66;106440;1253;72581;-75
2023/11/01 06:40:31;;;;;;;26.00;14.90;;;;;;;14.32;100.00;100453.95;105901;1257;60706;-78
2023/11/01 06:42:58;;;;;;;21.30;14.80;;;;;;;14.32;100.00;100452.03;106015;1254;59740;-76
2023/11/01 06:45:26;;;;;;;20.40;14.80;;;;;;;14.32;100.00;100452.73;105789;1254;71920;-77
2023/11/01 06:47:56;;;;;;;24.00;14.80;;;;;;;14.33;100.00;100444.24;106053;1257;62689;-75
2023/11/01 06:50:23;;;;;;;18.40;14.10;;;;;;;14.34;100.00;100441.88;105852;1257;72554;-77
2023/11/01 06:52:50;;;;;;;23.10;15.60;;;;;;;14.36;100.00;100440.30;106278;1260;61676;-75
2023/11/01 06:55:17;;;;;;;27.20;15.40;;;;;;;14.38;100.00;100433.13;106329;1254;60460;-77
2023/11/01 06:57:44;;;;;;;23.20;15.40;;;;;;;14.39;100.00;100426.52;106474;1254;71622;-76
2023/11/01 07:00:15;;;;;;;24.40;15.60;;;;;;;14.42;100.00;100420.30;106840;1257;61589;-74
2023/11/01 07:02:43;;;;;;;25.20;16.70;;;;;;;14.47;100.00;100414.99;106650;1257;72531;-74
2023/11/01 07:05:09;;;;;;;23.70;16.00;;;;;;;14.53;100.00;100406.96;106395;1254;61814;-75
2023/11/01 07:07:36;;;;;;;24.10;14.10;;;;;;;14.59;100.00;100404.70;105953;1257;60315;-75
2023/11/01 07:10:07;;;;;;;20.90;13.90;;;;;;;14.65;100.00;100406.50;105951;1257;73276;-77
2023/11/01 07:12:33;;;;;;;29.90;15.80;;;;;;;14.73;100.00;100403.98;105880;1257;63860;-77
2023/11/01 07:15:00;;;;;;;19.70;14.60;;;;;;;14.79;100.00;100397.49;105770;1254;71136;-78
2023/11/01 07:17:30;;;;;;;20.40;13.60;;;;;;;14.85;100.00;100400.38;106034;1255;61875;-78
2023/11/01 07:19:58;;;;;;;18.30;13.60;;;;;;;14.91;100.00;100396.88;105913;1252;60156;-78
2023/11/01 07:22:25;;;;;;;20.40;13.40;;;;;;;14.98;100.00;100392.46;105959;1251;74038;-77
2023/11/01 07:24:52;;;;;;;22.30;13.00;;;;;;;15.04;100.00;100398.07;105940;1251;63907;-78
2023/11/01 07:27:19;;;;;;;23.30;14.30;;;;;;;15.13;100.00;100393.33;106016;1251;71411;-74
2023/11/01 07:29:46;;;;;;;16.20;12.10;;;;;;;15.22;100.00;100391.20;107317;1251;61270;-76
2023/11/01 07:32:22;;;;;;;18.10;12.50;;;;;;;15.29;100.00;100391.92;107138;1251;60105;-75
2023/11/01 07:34:51;;;;;;;15.10;11.70;;;;;;;15.40;100.00;100397.78;106798;1256;70698;-80
2023/11/01 07:37:18;;;;;;;20.00;11.40;;;;;;;15.50;100.00;100393.41;105990;1251;63636;-77
2023/11/01 07:39:45;;;;;;;17.90;11.10;;;;;;;15.59;100.00;100387.91;105918;1251;71092;-76
2023/11/01 07:42:12;;;;;;;20.60;10.70;;;;;;;15.67;100.00;100385.29;106122;1251;62157;-76
2023/11/01 07:44:39;;;;;;;16.50;11.30;;;;;;;15.74;100.00;100383.75;106055;1251;60570;-76
2023/11/01 07:47:06;;;;;;;18.60;10.30;;;;;;;15.83;100.00;100381.13;105956;1256;73114;-76
2023/11/01 07:49:33;;;;;;;15.00;10.40;;;;;;;15.93;100.00;100383.09;105899;1251;65307;-78
2023/11/01 07:52:00;;;;;;;19.00;10.40;;;;;;;16.03;100.00;100384.69;105935;1251;72639;-78
2023/11/01 07:54:28;;;;;;;19.30;11.70;;;;;;;16.12;100.00;100377.66;105924;1258;61940;-75
2023/11/01 07:56:55;;;;;;;19.10;10.60;;;;;;;16.25;100.00;100377.48;105945;1256;60355;-74
2023/11/01 07:59:22;;;;;;;17.60;11.20;;;;;;;16.38;100.00;100379.13;105976;1258;72733;-76
2023/11/01 08:01:50;;;;;;;15.30;10.20;;;;;;;16.52;100.00;100381.58;105972;1251;62962;-77
2023/11/01 08:04:17;;;;;;;19.30;9.40;;;;;;;16.64;100.00;100386.58;105878;1255;72683;-77
2023/11/01 08:06:45;;;;;;;16.70;8.30;;;;;;;16.74;100.00;100389.72;105898;1257;60387;-75
2023/11/01 08:09:15;;;;;;;17.20;9.50;;;;;;;16.84;100.00;100385.37;106038;1254;60086;-78
2023/11/01 08:11:42;;;;;;;19.60;10.60;;;;;;;16.96;100.00;100378.56;105997;1254;73070;-80
2023/11/01 08:14:09;;;;;;;14.90;8.40;;;;;;;17.09;100.00;100378.84;105974;1254;64169;-77
2023/11/01 08:16:36;;;;;;;17.70;9.60;;;;;;;17.20;100.00;100371.80;106004;1251;72855;-77
2023/11/01 08:19:03;;;;;;;17.30;9.60;;;;;;;17.31;100.00;100372.86;105974;1256;61770;-77
2023/11/01 08:21:30;;;;;;;14.80;7.90;;;;;;;17.41;100.00;100362.09;105913;1251;61058;-76
2023/11/01 08:23:59;;;;;;;13.30;9.00;;;;;;;17.49;100.00;100359.23;105879;1251;73293;-76
2023/11/01 08:26:26;;;;;;;10.60;7.70;;;;;;;17.57;100.00;100362.33;106069;1254;63689;-77
2023/11/01 08:28:53;;;;;;;14.40;8.30;;;;;;;17.64;100.00;100367.38;105990;1251;71165;-77
2023/11/01 08:31:21;;;;;;;13.50;8.00;;;;;;;17.71;100.00;100369.40;105895;1254;62117;-77
2023/11/01 08:33:48;;;;;;;16.10;9.60;;;;;;;17.81;100.00;100372.14;106049;1254;60463;-76
2023/11/01 08:36:14;;;;;;;17.10;8.50;;;;;;;17.93;100.00;100370.17;105847;1255;73305;-78
2023/11/01 08:38:41;;;;;;;14.80;8.80;;;;;;;18.06;100.00;100376.73;105979;1254;62214;-78
2023/11/01 08:41:12;;;;;;;12.50;8.00;;;;;;;18.22;100.00;100379.08;106035;1254;72668;-76
2023/11/01 08:43:40;;;;;;;12.20;8.00;;;;;;;18.50;100.00;100378.81;105968;1254;61960;-75
2023/11/01 08:46:07;;;;;;;14.30;7.70;;;;;;;18.91;100.00;100385.33;106049;1254;59682;-73
2023/11/01 08:52:02;;;;;;;15.10;6.80;;;;;;;20.17;100.00;100387.94;106003;1254;63861;-76
2023/11/01 08:54:31;;;;;;;11.00;6.20;;;;;;;20.60;100.00;100376.20;106309;1251;73763;-78
2023/11/01 08:56:58;;;;;;;14.80;5.90;;;;;;;20.96;100.00;100386.40;105886;1251;62154;-75
2023/11/01 08:59:25;;;;;;;9.40;6.00;;;;;;;21.18;100.00;100384.75;106078;1254;59605;-75
2023/11/01 09:01:51;;;;;;;12.00;6.20;;;;;;;21.28;100.00;100382.20;105923;1251;72093;-77
2023/11/01 09:04:30;;;;;;;11.10;6.90;;;;;;;21.32;100.00;100381.07;105878;1254;63913;-73
2023/11/01 09:06:57;;;;;;;13.10;6.60;;;;;;;21.31;100.00;100380.06;105931;1251;73604;-77
2023/11/01 09:09:25;;;;;;;11.40;5.90;;;;;;;21.25;100.00;100379.67;105932;1250;60291;-77
2023/11/01 09:11:52;;;;;;;12.90;6.60;;;;;;;21.15;100.00;100379.55;105931;1251;60667;-73
2023/11/01 09:14:37;;;;;;;12.00;6.30;;;;;;;20.99;100.00;100378.84;105994;1254;72945;-73
2023/11/01 09:17:07;;;;;;;10.70;7.20;;;;;;;20.85;100.00;100377.77;105906;1254;62852;-75
2023/11/01 09:19:34;;;;;;;12.80;6.80;;;;;;;20.77;100.00;100370.89;105869;1254;71142;-73
2023/11/01 09:22:01;;;;;;;13.10;7.50;;;;;;;20.71;100.00;100372.92;105886;1254;60293;-72
2023/11/01 09:24:29;;;;;;;12.40;7.40;;;;;;;20.75;100.00;100370.77;105886;1250;59736;-71
2023/11/01 09:26:56;;;;;;;14.80;7.10;;;;;;;20.92;100.00;100366.87;105895;1254;72229;-73
2023/11/01 09:29:23;;;;;;;11.60;7.60;;;;;;;21.23;100.00;100365.38;105943;1254;63663;-72
2023/11/01 09:31:49;;;;;;;14.80;8.90;;;;;;;21.63;100.00;100362.05;105990;1251;72904;-76
2023/11/01 09:34:16;;;;;;;13.50;7.20;;;;;;;22.01;100.00;100364.20;105962;1251;60157;-75
2023/11/01 09:36:43;;;;;;;14.10;7.10;;;;;;;22.33;100.00;100360.77;105959;1251;60431;-75
2023/11/01 09:42:46;;;;;;;12.50;7.60;;;;;;;22.87;100.00;100350.25;105885;1254;65061;-76
2023/11/01 09:45:14;;;;;;;12.20;8.50;;;;;;;22.93;99.99;100349.05;105943;1250;71749;-75
2023/11/01 09:47:41;;;;;;;14.10;7.30;;;;;;;23.00;99.79;100346.06;105945;1250;60646;-76
2023/11/01 09:50:08;;;;;;;14.00;7.50;;;;;;;23.07;99.03;100342.13;105885;1255;60579;-74
2023/11/01 09:52:35;;;;;;;10.10;7.30;;;;;;;23.04;98.85;100341.09;105916;1250;73847;-75
2023/11/01 09:55:04;;;;;;;15.50;7.90;;;;;;;23.01;99.58;100339.27;105959;1254;64088;-73
2023/11/01 09:57:35;;;;;;;17.00;7.00;;;;;;;23.05;99.83;100337.06;105937;1255;72750;-76
2023/11/01 10:00:03;;;;;;;9.70;7.30;;;;;;;23.02;99.77;100338.39;105832;1257;60809;-74
2023/11/01 10:02:32;;;;;;;15.00;8.30;;;;;;;22.98;100.00;100332.95;106000;1251;60451;-75
2023/11/01 10:08:33;;;;;;;10.10;6.90;;;;;;;23.02;100.00;100324.46;105976;1254;63471;-78
2023/11/01 10:11:00;;;;;;;13.40;7.80;;;;;;;23.16;100.00;100318.90;106023;1251;73687;-74
2023/11/01 10:13:30;;;;;;;13.50;7.60;;;;;;;23.42;99.62;100315.50;105993;1254;60471;-75
2023/11/01 10:15:57;;;;;;;14.70;8.10;;;;;;;23.73;98.12;100304.28;106295;1251;60357;-76
2023/11/01 10:18:24;;;;;;;14.40;7.80;;;;;;;23.94;95.89;100300.63;107587;1250;73644;-75
2023/11/01 10:20:51;;;;;;;14.60;9.80;;;;;;;23.95;94.61;100293.95;107636;1250;61859;-75
2023/11/01 10:23:18;;;;;;;15.60;10.00;;;;;;;23.88;95.32;100298.39;107482;1251;70725;-73
2023/11/01 10:25:45;;;;;;;15.90;9.70;;;;;;;23.85;95.52;100301.45;106084;1251;60526;-75
2023/11/01 10:28:12;;;;;;;13.30;9.60;;;;;;;23.83;96.03;100294.52;105981;1250;60537;-76
2023/11/01 10:30:43;;;;;;;24.60;13.80;;;;;;;23.85;96.70;100291.62;105967;1254;74948;-77
2023/11/01 10:33:13;;;;;;;19.90;11.10;;;;;;;23.84;96.20;100294.10;105985;1254;63051;-76
2023/11/01 10:35:40;;;;;;;12.60;11.00;;;;;;;23.71;96.16;100292.43;106021;1257;72723;-75
2023/11/01 10:38:08;;;;;;;17.60;10.70;;;;;;;23.49;97.37;100282.70;106036;1250;60468;-76
2023/11/01 10:40:37;;;;;;;17.00;11.20;;;;;;;23.29;98.69;100275.47;105900;1251;60504;-76
2023/11/01 10:43:04;;;;;;;16.40;11.40;;;;;;;23.05;99.93;100275.58;106175;1251;75044;-76
2023/11/01 10:45:31;;;;;;;22.00;12.30;;;;;;;22.80;100.00;100276.48;105869;1256;64396;-76
2023/11/01 10:47:58;;;;;;;21.70;13.60;;;;;;;22.53;100.00;100275.85;105814;1254;71440;-75
2023/11/01 10:50:27;;;;;;;31.90;13.80;;;;;;;22.24;100.00;100268.33;105879;1251;60420;-73
2023/11/01 10:52:55;;;;;;;23.70;13.80;;;;;;;21.96;100.00;100266.15;105951;1251;60371;-76
2023/11/01 10:55:24;;;;;;;18.00;12.30;;;;;;;21.69;100.00;100259.81;105874;1250;73928;-76
2023/11/01 10:57:51;;;;;;;21.30;13.30;;;;;;;21.48;100.00;100260.75;106052;1251;63840;-73
2023/11/01 11:00:44;;;;;;;19.20;12.70;;;;;;;21.24;100.00;100258.69;105774;1257;72849;-75
2023/11/01 11:03:18;;;;;;;17.80;13.10;;;;;;;21.00;100.00;100256.54;105853;1251;60539;-76
2023/11/01 11:05:45;;;;;;;20.10;12.00;;;;;;;20.82;100.00;100259.96;105929;1255;60528;-76
2023/11/01 11:08:15;;;;;;;13.50;11.10;;;;;;;20.67;100.00;100259.09;106002;1256;73883;-77
2023/11/01 11:10:43;;;;;;;20.10;13.00;;;;;;;20.52;100.00;100256.39;105882;1254;63329;-76
2023/11/01 11:13:16;;;;;;;15.00;12.60;;;;;;;20.39;100.00;100259.80;105981;1250;72681;-76
2023/11/01 11:18:50;;;;;;;22.20;12.00;;;;;;;20.15;100.00;100259.88;105921;1251;60397;-76
2023/11/01 11:21:45;;;;;;;20.40;11.90;;;;;;;20.08;100.00;100260.92;105834;1250;72873;-77
2023/11/01 11:24:37;;;;;;;15.60;11.80;;;;;;;20.02;100.00;100251.63;105924;1254;64099;-77
2023/11/01 11:27:45;;;;;;;17.80;11.60;;;;;;;19.98;100.00;100246.95;105970;1254;71711;-73
2023/11/01 11:30:12;;;;;;;21.50;11.70;;;;;;;19.95;100.00;100240.65;105944;1254;61950;-75
2023/11/01 11:32:39;;;;;;;23.00;12.60;;;;;;;19.95;100.00;100239.96;105947;1250;60546;-75
2023/11/01 11:35:19;;;;;;;24.40;12.80;;;;;;;19.95;100.00;100239.61;105918;1250;73868;-73
2023/11/01 11:37:46;;;;;;;29.90;13.20;;;;;;;19.93;100.00;100237.19;105952;1254;63233;-74
2023/11/01 11:40:13;;;;;;;17.00;12.00;;;;;;;19.92;100.00;100240.15;105992;1250;72428;-71